Time;durP1;ratioP1;P1;durP2;ratioP2;P2;SDS_P1;SDS_P2;PMS_P1;PMS_P2;Temp;Humidity;BMP_temperature;BMP_pressure;BME280_temperature;BME280_humidity;BME280_pressure;Samples;Min_cycle;Max_cycle;Signal;HPM_P1;HPM_P2
2022/09/21 00:01:11;;;;;;;8.35;3.63;;;;;;;17.12;59.78;101258.72;5008326;28;20073;-81
2022/09/21 00:03:40;;;;;;;11.70;3.92;;;;;;;17.35;60.05;101298.34;5020774;28;20053;-81
2022/09/21 00:06:16;;;;;;;7.97;4.30;;;;;;;17.53;60.39;101333.97;5004843;28;20092;-82
2022/09/21 00:08:44;;;;;;;8.02;3.75;;;;;;;17.97;60.49;101405.44;5004633;28;20533;-82
2022/09/21 00:11:16;;;;;;;9.88;3.47;;;;;;;17.90;61.08;101405.25;5005989;28;20125;-81
2022/09/21 00:13:45;;;;;;;8.07;3.80;;;;;;;17.95;61.01;101421.69;5004789;28;20060;-81
2022/09/21 00:16:14;;;;;;;12.63;3.60;;;;;;;17.94;60.86;101417.34;5005909;28;20184;-81
2022/09/21 00:18:41;;;;;;;11.05;3.58;;;;;;;17.72;60.92;101378.50;5004459;28;20057;-82
2022/09/21 00:21:10;;;;;;;7.43;3.85;;;;;;;17.81;60.88;101395.47;5004549;28;20081;-80
2022/09/21 00:23:37;;;;;;;15.82;4.47;;;;;;;17.84;60.68;101405.88;5005565;28;20076;-81
2022/09/21 00:26:11;;;;;;;6.90;3.58;;;;;;;17.80;61.28;101399.16;5004476;28;20046;-81
2022/09/21 00:28:39;;;;;;;6.00;3.60;;;;;;;17.33;61.00;101327.19;5005959;28;20056;-81
2022/09/21 00:31:11;;;;;;;8.80;3.85;;;;;;;17.86;60.77;101420.00;5004270;28;20076;-82
2022/09/21 00:33:39;;;;;;;8.38;3.83;;;;;;;17.76;61.33;101413.91;5006627;28;20111;-80
2022/09/21 00:36:09;;;;;;;6.13;3.42;;;;;;;17.72;61.27;101416.94;5013065;28;20145;-81
2022/09/21 00:38:36;;;;;;;10.48;3.42;;;;;;;17.78;61.71;101434.22;5017396;28;20513;-82
2022/09/21 00:41:04;;;;;;;8.07;3.65;;;;;;;17.78;61.87;101439.59;5012127;28;20088;-81
2022/09/21 00:43:35;;;;;;;7.00;3.08;;;;;;;17.32;61.62;101369.28;5009974;28;20041;-81
2022/09/21 00:46:05;;;;;;;7.05;3.45;;;;;;;17.73;61.81;101437.38;5008851;28;20133;-81
2022/09/21 00:48:32;;;;;;;10.75;3.50;;;;;;;17.43;61.84;101403.06;5002409;28;20061;-81
2022/09/21 00:51:05;;;;;;;8.60;3.80;;;;;;;17.40;62.03;101403.38;4988125;28;20352;-82
2022/09/21 00:53:32;;;;;;;7.93;3.63;;;;;;;17.40;61.77;101414.09;4988137;28;20130;-81
2022/09/21 00:56:01;;;;;;;7.82;3.33;;;;;;;16.90;61.61;101323.69;4988745;28;20409;-80
2022/09/21 00:58:33;;;;;;;12.20;3.85;;;;;;;17.59;61.01;101429.94;4988034;28;20057;-81
2022/09/21 01:01:00;;;;;;;8.20;3.38;;;;;;;17.84;59.91;101443.50;4988495;28;20144;-82
2022/09/21 01:03:30;;;;;;;9.23;3.47;;;;;;;17.76;60.36;101443.44;4987881;28;20447;-82
2022/09/21 01:05:56;;;;;;;9.82;3.55;;;;;;;17.47;60.82;101412.47;4987889;28;20062;-82
2022/09/21 01:08:25;;;;;;;7.65;3.75;;;;;;;17.43;60.76;101409.28;4987632;28;20060;-80
2022/09/21 01:11:24;;;;;;;8.88;4.70;;;;;;;17.55;60.76;101425.94;4989035;28;20305;-80
2022/09/21 01:14:12;;;;;;;8.93;4.15;;;;;;;17.62;60.63;101448.44;4987786;28;20060;-82
2022/09/21 01:16:42;;;;;;;10.50;3.88;;;;;;;17.51;61.34;101448.72;4989236;28;20482;-81
2022/09/21 01:19:25;;;;;;;11.68;4.60;;;;;;;17.26;61.84;101435.19;4988984;28;20293;-82
2022/09/21 01:22:08;;;;;;;10.68;3.97;;;;;;;16.48;61.83;101313.69;4987610;28;20062;-81
2022/09/21 01:24:38;;;;;;;14.73;3.80;;;;;;;17.30;62.12;101455.31;4987494;28;20510;-81
2022/09/21 01:27:07;;;;;;;8.10;4.20;;;;;;;16.95;62.35;101404.50;4987447;28;20057;-82
2022/09/21 01:29:48;;;;;;;12.35;4.18;;;;;;;17.11;62.75;101454.72;4987061;28;20057;-81
2022/09/21 01:32:24;;;;;;;7.15;3.95;;;;;;;16.79;62.85;101416.78;4987188;28;20050;-81
2022/09/21 01:35:21;;;;;;;11.50;4.20;;;;;;;16.97;63.01;101456.16;4987577;28;20475;-81
2022/09/21 01:37:55;;;;;;;8.35;4.20;;;;;;;16.07;63.45;101302.66;4995509;28;20161;-81
2022/09/21 01:40:29;;;;;;;8.13;4.35;;;;;;;16.96;63.17;101449.91;4989708;28;20459;-79
2022/09/21 01:43:04;;;;;;;12.48;4.30;;;;;;;16.84;63.45;101429.72;4988454;28;20128;-80
2022/09/21 01:45:34;;;;;;;12.80;4.43;;;;;;;16.58;63.50;101392.16;4988636;28;20141;-80
2022/09/21 01:48:02;;;;;;;6.18;3.85;;;;;;;16.96;63.27;101455.28;4987140;28;20148;-81
2022/09/21 01:50:37;;;;;;;9.77;4.10;;;;;;;16.71;63.49;101423.94;4988034;28;20061;-82
2022/09/21 01:53:14;;;;;;;10.18;4.53;;;;;;;16.85;63.40;101432.25;4987161;28;20406;-82
2022/09/21 01:55:50;;;;;;;7.60;3.90;;;;;;;16.83;63.07;101422.69;4986917;28;20061;-82
2022/09/21 01:58:25;;;;;;;6.72;3.72;;;;;;;16.95;63.45;101447.41;4987419;28;20382;-81
2022/09/21 02:00:55;;;;;;;12.18;4.03;;;;;;;16.71;63.50;101411.34;4986766;28;20042;-82
2022/09/21 02:03:29;;;;;;;10.20;3.95;;;;;;;16.85;63.53;101448.34;4986752;28;20137;-83
2022/09/21 02:05:57;;;;;;;8.15;3.95;;;;;;;16.99;63.54;101460.34;4986580;28;20561;-81
2022/09/21 02:08:27;;;;;;;7.88;3.63;;;;;;;16.44;63.64;101372.13;4986857;28;20323;-81
2022/09/21 02:10:54;;;;;;;11.57;4.35;;;;;;;16.97;63.69;101464.19;4987115;28;20378;-80
2022/09/21 02:13:26;;;;;;;10.32;3.60;;;;;;;16.81;63.08;101444.28;4986990;28;20050;-80
2022/09/21 02:16:07;;;;;;;8.00;3.97;;;;;;;16.91;62.75;101456.78;4986538;28;20145;-81
2022/09/21 02:19:01;;;;;;;10.73;4.43;;;;;;;17.02;62.80;101477.97;4986695;28;20049;-80
2022/09/21 02:21:47;;;;;;;8.10;3.80;;;;;;;16.64;62.47;101412.97;4986286;28;20137;-81
2022/09/21 02:24:22;;;;;;;9.32;3.90;;;;;;;16.93;62.51;101457.47;4986406;28;20050;-81
2022/09/21 02:27:33;;;;;;;12.93;3.13;;;;;;;17.01;62.35;101481.66;4986353;28;20328;-81
2022/09/21 02:30:08;;;;;;;7.85;3.58;;;;;;;16.67;62.45;101418.00;4949183;28;20046;-81
2022/09/21 02:32:50;;;;;;;10.00;3.35;;;;;;;16.91;62.93;101464.81;4998802;28;20542;-81
2022/09/21 02:35:44;;;;;;;6.40;4.30;;;;;;;17.02;62.92;101491.38;4986217;28;20051;-81
2022/09/21 02:38:21;;;;;;;9.98;4.28;;;;;;;17.04;62.78;101492.09;5001003;28;20073;-81
2022/09/21 02:41:23;;;;;;;6.40;3.58;;;;;;;16.83;63.02;101471.81;5009603;28;20540;-82
2022/09/21 02:44:03;;;;;;;6.78;4.13;;;;;;;16.92;62.57;101504.03;5005677;28;20452;-82
2022/09/21 02:46:39;;;;;;;9.98;6.50;;;;;;;16.83;62.45;101506.66;5012678;28;20049;-81
2022/09/21 02:49:12;;;;;;;14.35;7.50;;;;;;;16.72;62.68;101489.94;5022387;28;20060;-82
2022/09/21 02:51:46;;;;;;;12.77;6.10;;;;;;;16.73;62.65;101489.78;5005593;28;20406;-82
2022/09/21 02:54:16;;;;;;;9.05;4.88;;;;;;;16.91;61.98;101515.78;5005663;28;20385;-81
2022/09/21 02:56:46;;;;;;;11.75;5.00;;;;;;;16.50;61.62;101448.38;5005956;28;20068;-79
2022/09/21 02:59:15;;;;;;;10.60;5.15;;;;;;;16.08;62.01;101390.06;5005835;28;20285;-81
2022/09/21 03:01:42;;;;;;;8.70;4.72;;;;;;;16.76;62.01;101524.34;5007558;28;20444;-81
2022/09/21 03:04:09;;;;;;;9.50;4.55;;;;;;;16.72;61.94;101525.63;5008871;28;20037;-82
2022/09/21 03:06:36;;;;;;;14.65;5.68;;;;;;;16.42;61.53;101484.00;5024860;28;20119;-83
2022/09/21 03:09:03;;;;;;;8.30;4.38;;;;;;;16.64;61.50;101514.84;5008846;28;20054;-80
2022/09/21 03:11:29;;;;;;;11.35;5.38;;;;;;;16.65;61.38;101513.84;5025856;28;20067;-81
2022/09/21 03:13:56;;;;;;;9.27;4.57;;;;;;;16.65;61.64;101516.50;5008440;28;20724;-83
2022/09/21 03:16:23;;;;;;;8.48;4.60;;;;;;;16.58;61.68;101515.47;5008260;28;20143;-83
2022/09/21 03:18:50;;;;;;;10.40;4.78;;;;;;;16.49;61.63;101506.50;5008485;28;20404;-80
2022/09/21 03:21:17;;;;;;;7.32;4.90;;;;;;;16.26;61.32;101479.31;5008478;28;20128;-80
2022/09/21 03:23:44;;;;;;;12.75;4.30;;;;;;;16.30;61.20;101512.00;5025676;28;20045;-80
2022/09/21 03:26:10;;;;;;;5.65;3.88;;;;;;;16.44;60.83;101535.59;5008411;28;20079;-80
2022/09/21 03:28:37;;;;;;;5.80;3.42;;;;;;;16.52;60.43;101533.00;5008611;28;20077;-80
2022/09/21 03:31:05;;;;;;;7.35;3.90;;;;;;;16.45;61.21;101527.38;5008616;28;20042;-80
2022/09/21 03:33:32;;;;;;;9.45;3.65;;;;;;;16.55;61.54;101547.94;5008363;28;20041;-78
2022/09/21 03:35:58;;;;;;;13.23;4.00;;;;;;;16.06;61.13;101481.28;5008281;28;20447;-79
2022/09/21 03:38:25;;;;;;;5.80;3.75;;;;;;;16.57;60.96;101540.56;5007741;28;20054;-80
2022/09/21 03:40:56;;;;;;;8.65;3.67;;;;;;;16.61;61.05;101552.69;5026054;28;20111;-79
2022/09/21 03:43:24;;;;;;;10.45;4.32;;;;;;;16.44;61.39;101547.16;5008216;28;20056;-81
2022/09/21 03:45:51;;;;;;;6.47;3.88;;;;;;;16.34;61.34;101540.19;5025512;28;20060;-80
2022/09/21 03:48:17;;;;;;;7.68;3.63;;;;;;;16.45;61.69;101564.91;5024323;28;20052;-79
2022/09/21 03:50:44;;;;;;;6.88;4.03;;;;;;;16.39;61.69;101549.44;5008139;28;20391;-80
2022/09/21 03:53:11;;;;;;;10.63;4.07;;;;;;;16.55;61.01;101575.56;5007981;28;20049;-80
2022/09/21 03:55:37;;;;;;;5.82;3.30;;;;;;;16.60;61.05;101569.75;5024424;28;20353;-80
2022/09/21 03:58:05;;;;;;;8.65;3.83;;;;;;;16.59;60.93;101560.88;5024343;28;20481;-79
2022/09/21 04:00:32;;;;;;;7.60;3.47;;;;;;;16.28;60.86;101508.63;5008906;28;20049;-80
2022/09/21 04:02:58;;;;;;;12.50;3.88;;;;;;;16.31;60.68;101514.53;5006418;28;20592;-80
2022/09/21 04:05:26;;;;;;;6.60;3.10;;;;;;;16.66;60.53;101561.13;4989349;28;20049;-80
2022/09/21 04:07:54;;;;;;;9.63;3.50;;;;;;;16.60;60.29;101553.66;4988873;28;20050;-81
2022/09/21 04:10:25;;;;;;;6.82;4.00;;;;;;;16.02;59.66;101435.22;4988540;28;20671;-80
2022/09/21 04:12:56;;;;;;;6.07;3.65;;;;;;;16.85;60.37;101593.16;5006358;28;20481;-79
2022/09/21 04:15:23;;;;;;;7.97;3.63;;;;;;;16.80;59.97;101584.75;4992116;28;20056;-82
2022/09/21 04:17:50;;;;;;;6.75;2.90;;;;;;;16.51;60.30;101549.25;4992084;28;20144;-82
2022/09/21 04:20:18;;;;;;;8.55;3.88;;;;;;;16.81;60.11;101599.00;5009671;28;20136;-80
2022/09/21 04:22:45;;;;;;;9.20;3.47;;;;;;;16.73;60.57;101594.38;4991720;28;20048;-80
2022/09/21 04:25:13;;;;;;;6.03;3.10;;;;;;;16.80;60.49;101616.94;5009363;28;20068;-81
2022/09/21 04:27:40;;;;;;;5.38;2.88;;;;;;;16.69;60.30;101595.66;4991501;28;20050;-80
2022/09/21 04:30:10;;;;;;;3.75;2.40;;;;;;;16.26;60.70;101527.53;4991929;28;20056;-80
2022/09/21 04:32:36;;;;;;;8.05;2.97;;;;;;;16.63;60.36;101580.19;4992151;28;20461;-80
2022/09/21 04:35:03;;;;;;;4.93;2.70;;;;;;;16.81;60.70;101612.41;5003012;28;20488;-79
2022/09/21 04:37:30;;;;;;;8.20;2.95;;;;;;;16.57;60.69;101578.09;5011993;28;20057;-78
2022/09/21 04:39:57;;;;;;;4.78;2.95;;;;;;;16.81;60.68;101623.13;5011005;28;20041;-79
2022/09/21 04:42:24;;;;;;;3.97;2.20;;;;;;;16.76;60.88;101617.34;5011767;28;20072;-79
2022/09/21 04:44:54;;;;;;;7.13;2.40;;;;;;;16.93;60.59;101624.56;5002150;28;20157;-79
2022/09/21 04:47:22;;;;;;;2.92;1.90;;;;;;;16.96;60.04;101620.75;4996059;28;20081;-80
2022/09/21 04:49:50;;;;;;;6.40;2.60;;;;;;;17.00;60.23;101638.22;5025732;28;20041;-81
2022/09/21 04:52:17;;;;;;;10.13;2.55;;;;;;;16.98;60.18;101640.22;5024153;28;20079;-79
2022/09/21 04:54:45;;;;;;;7.35;2.67;;;;;;;16.87;60.18;101625.22;5013246;28;20168;-79
2022/09/21 04:57:13;;;;;;;7.78;2.90;;;;;;;16.65;60.19;101586.22;5012267;28;20139;-79
2022/09/21 04:59:40;;;;;;;8.20;3.22;;;;;;;17.02;59.81;101644.28;5011311;28;20045;-79
2022/09/21 05:02:07;;;;;;;11.70;2.80;;;;;;;17.04;59.98;101653.88;5011287;28;20567;-79
2022/09/21 05:04:34;;;;;;;10.68;4.28;;;;;;;16.54;60.00;101578.41;5028469;28;20052;-77
2022/09/21 05:07:01;;;;;;;8.77;2.75;;;;;;;17.03;60.10;101659.38;5028395;28;20052;-79
2022/09/21 05:12:12;;;;;;;4.45;2.47;;;;;;;17.04;59.88;101655.72;5029048;28;20447;-79
2022/09/21 05:14:39;;;;;;;5.88;2.40;;;;;;;17.11;60.03;101656.75;5027779;28;20409;-78
2022/09/21 05:17:06;;;;;;;13.32;2.38;;;;;;;17.09;59.25;101637.31;5011346;28;20100;-77
2022/09/21 05:19:42;;;;;;;7.22;2.50;;;;;;;16.96;59.57;101628.78;5011847;28;20073;-80
2022/09/21 05:22:08;;;;;;;9.00;2.40;;;;;;;17.07;59.98;101666.13;5012066;28;20049;-79
2022/09/21 05:24:35;;;;;;;5.97;2.05;;;;;;;16.99;59.52;101647.25;5010279;28;20049;-79
2022/09/21 05:27:02;;;;;;;4.95;2.40;;;;;;;17.26;59.22;101682.06;5010703;28;20416;-80
2022/09/21 05:29:28;;;;;;;11.57;2.33;;;;;;;17.19;59.45;101677.47;5010206;28;20072;-80
2022/09/21 05:32:16;;;;;;;7.30;2.55;;;;;;;16.99;59.87;101650.81;5010233;28;20554;-78
2022/09/21 05:35:09;;;;;;;13.80;2.45;;;;;;;17.12;59.98;101674.56;5010108;28;20460;-81
2022/09/21 05:38:12;;;;;;;6.30;2.67;;;;;;;17.17;59.99;101691.03;5009263;28;20132;-78
2022/09/21 05:40:39;;;;;;;14.13;2.72;;;;;;;16.77;61.00;101629.75;5009007;28;20046;-79
2022/09/21 05:43:07;;;;;;;4.32;2.10;;;;;;;17.14;61.25;101691.34;5026495;28;20057;-79
2022/09/21 05:45:34;;;;;;;10.40;3.58;;;;;;;17.06;61.04;101657.25;5026675;28;20501;-78
2022/09/21 05:48:14;;;;;;;10.80;3.47;;;;;;;17.28;61.02;101696.19;5009756;28;20394;-79
2022/09/21 05:50:59;;;;;;;10.90;3.33;;;;;;;17.27;60.82;101694.47;5010436;28;20158;-81
2022/09/21 05:53:47;;;;;;;10.15;2.90;;;;;;;17.36;60.60;101694.56;5009837;28;20045;-78
2022/09/21 05:56:47;;;;;;;8.13;2.78;;;;;;;17.28;59.92;101663.97;5027790;28;20072;-82
2022/09/21 05:59:35;;;;;;;13.63;2.92;;;;;;;17.53;59.54;101688.34;5009869;28;20128;-80
2022/09/21 06:02:11;;;;;;;11.40;2.38;;;;;;;17.62;59.01;101692.78;4994635;28;20141;-82
2022/09/21 06:04:38;;;;;;;8.52;2.35;;;;;;;17.54;58.54;101679.28;4996330;28;20292;-80
2022/09/21 06:07:04;;;;;;;7.55;2.13;;;;;;;17.49;58.90;101686.97;4989113;28;20058;-80
2022/09/21 06:09:31;;;;;;;6.95;2.10;;;;;;;17.12;59.23;101631.63;5007116;28;20439;-80
2022/09/21 06:11:58;;;;;;;6.30;2.30;;;;;;;17.40;59.59;101682.50;4997175;28;20058;-79
2022/09/21 06:14:25;;;;;;;7.35;2.30;;;;;;;17.34;59.28;101678.63;4987615;28;20459;-81
2022/09/21 06:16:52;;;;;;;11.13;3.67;;;;;;;17.52;59.45;101718.84;4988438;28;20088;-80
2022/09/21 06:19:19;;;;;;;6.90;2.70;;;;;;;17.59;59.48;101711.03;4987303;28;20050;-79
2022/09/21 06:21:45;;;;;;;8.98;2.72;;;;;;;17.58;59.63;101714.72;4986630;28;20405;-80
2022/09/21 06:24:12;;;;;;;10.27;2.88;;;;;;;17.61;59.62;101717.94;4986308;28;20133;-79
2022/09/21 06:26:38;;;;;;;5.30;2.50;;;;;;;17.55;59.64;101715.00;4991129;28;20068;-79
2022/09/21 06:29:05;;;;;;;7.93;2.83;;;;;;;17.34;60.16;101691.19;5006491;28;20240;-81
2022/09/21 06:31:31;;;;;;;4.32;2.20;;;;;;;17.20;60.13;101661.22;5005437;28;20046;-77
2022/09/21 06:33:59;;;;;;;8.00;3.35;;;;;;;17.64;60.24;101711.41;5006230;28;20137;-79
2022/09/21 06:36:26;;;;;;;6.93;2.42;;;;;;;17.79;60.30;101719.72;5005402;28;20072;-79
2022/09/21 06:38:52;;;;;;;5.60;2.83;;;;;;;17.86;60.17;101721.66;4985706;28;20076;-79
2022/09/21 06:41:20;;;;;;;6.60;2.63;;;;;;;17.79;60.17;101692.88;4984799;28;20525;-80
2022/09/21 06:43:47;;;;;;;12.25;2.90;;;;;;;17.96;60.62;101732.31;5006262;28;20053;-79
2022/09/21 06:46:13;;;;;;;12.55;2.60;;;;;;;18.01;60.66;101719.28;4986538;28;20060;-78
2022/09/21 06:48:40;;;;;;;9.60;2.35;;;;;;;17.98;60.82;101724.94;4991872;28;20109;-79
2022/09/21 06:51:07;;;;;;;6.22;2.50;;;;;;;18.01;60.29;101730.03;5004767;28;20049;-79
2022/09/21 06:53:34;;;;;;;7.65;2.38;;;;;;;17.39;60.65;101638.72;5008131;28;20049;-80
2022/09/21 06:56:03;;;;;;;3.53;1.85;;;;;;;17.90;60.18;101717.69;5010067;28;20074;-78
2022/09/21 06:58:33;;;;;;;7.28;2.58;;;;;;;17.94;60.63;101728.97;5007954;28;20046;-79
2022/09/21 07:01:10;;;;;;;7.00;1.83;;;;;;;17.90;59.92;101720.34;5008258;28;20085;-79
2022/09/21 07:03:38;;;;;;;8.98;2.50;;;;;;;17.94;59.95;101723.59;5026164;28;20497;-80
2022/09/21 07:06:05;;;;;;;5.47;2.22;;;;;;;17.87;59.85;101711.78;5010582;28;20045;-78
2022/09/21 07:08:32;;;;;;;5.32;2.03;;;;;;;17.72;59.86;101696.22;5008547;28;20046;-79
2022/09/21 07:11:20;;;;;;;8.65;2.00;;;;;;;17.97;59.94;101711.69;5011254;28;20056;-79
2022/09/21 07:13:47;;;;;;;4.32;1.60;;;;;;;17.76;59.77;101677.09;5008777;28;20053;-79
2022/09/21 07:16:14;;;;;;;4.25;2.20;;;;;;;17.96;59.85;101716.19;5024747;28;20057;-79
2022/09/21 07:18:41;;;;;;;6.65;2.08;;;;;;;17.36;59.89;101616.75;5025006;28;20041;-79
2022/09/21 07:21:10;;;;;;;7.20;2.15;;;;;;;17.54;59.43;101620.22;5007734;28;20054;-79
2022/09/21 07:23:37;;;;;;;7.07;2.30;;;;;;;18.05;59.38;101704.50;5009076;28;20493;-79
2022/09/21 07:26:09;;;;;;;7.03;2.28;;;;;;;18.41;59.05;101725.88;5009001;28;20042;-79
2022/09/21 07:28:36;;;;;;;6.43;2.20;;;;;;;18.30;59.23;101723.44;5008556;28;20059;-79
2022/09/21 07:31:12;;;;;;;4.50;2.50;;;;;;;18.36;59.00;101720.97;5026388;28;20132;-80
2022/09/21 07:33:40;;;;;;;4.38;2.10;;;;;;;18.03;58.71;101642.00;5009086;28;20068;-78
2022/09/21 07:36:11;;;;;;;7.78;2.13;;;;;;;18.51;58.47;101729.28;5005020;28;20054;-79
2022/09/21 07:38:43;;;;;;;12.93;2.78;;;;;;;18.10;58.22;101645.75;5007048;28;20350;-79
2022/09/21 07:41:11;;;;;;;9.85;2.35;;;;;;;18.65;58.10;101743.13;5008786;28;20139;-78
2022/09/21 07:43:39;;;;;;;7.25;2.60;;;;;;;18.62;58.24;101751.50;5026263;28;20045;-79
2022/09/21 07:46:11;;;;;;;9.70;2.25;;;;;;;18.47;58.21;101719.00;5008019;28;20045;-79
2022/09/21 07:48:38;;;;;;;3.90;1.70;;;;;;;18.58;57.65;101743.75;5006093;28;20042;-78
2022/09/21 07:51:10;;;;;;;3.40;1.77;;;;;;;18.86;57.33;101765.09;4992371;28;20066;-80
2022/09/21 07:53:40;;;;;;;5.93;2.30;;;;;;;18.10;57.06;101653.81;4992893;28;20148;-79
2022/09/21 07:56:09;;;;;;;2.45;1.52;;;;;;;18.91;57.03;101754.69;5010004;28;20292;-79
2022/09/21 08:01:24;;;;;;;6.95;2.10;;;;;;;18.98;56.16;101769.19;5009586;28;20049;-78
2022/09/21 08:03:52;;;;;;;6.88;2.03;;;;;;;19.05;56.33;101776.59;4992151;28;20046;-78
2022/09/21 08:06:18;;;;;;;6.47;2.00;;;;;;;19.12;56.27;101783.00;4992184;28;20512;-78
2022/09/21 08:08:47;;;;;;;5.65;1.58;;;;;;;19.18;55.64;101783.19;5008287;28;20239;-78
2022/09/21 08:11:16;;;;;;;5.53;1.77;;;;;;;19.12;55.72;101780.31;5010101;28;20041;-79
2022/09/21 08:13:43;;;;;;;2.88;1.50;;;;;;;19.08;56.43;101781.63;4992029;28;20042;-78
2022/09/21 08:16:10;;;;;;;6.63;2.33;;;;;;;19.08;56.14;101771.72;4992258;28;20061;-79
2022/09/21 08:18:38;;;;;;;9.63;1.75;;;;;;;19.22;56.48;101770.22;4991900;28;20476;-80
2022/09/21 08:21:06;;;;;;;10.48;1.88;;;;;;;19.37;55.82;101797.34;4992268;28;20145;-80
2022/09/21 08:23:33;;;;;;;7.53;1.55;;;;;;;19.43;55.95;101799.41;4991795;28;20054;-80
2022/09/21 08:26:05;;;;;;;3.13;1.30;;;;;;;19.56;55.31;101796.22;4992494;28;20065;-80
2022/09/21 08:28:34;;;;;;;3.90;1.13;;;;;;;19.49;55.54;101789.81;4992542;28;20157;-81
2022/09/21 08:31:09;;;;;;;11.93;2.22;;;;;;;19.10;56.12;101725.78;5009639;28;20317;-81
2022/09/21 08:33:36;;;;;;;5.13;1.58;;;;;;;19.50;56.39;101797.72;5009224;28;20136;-80
2022/09/21 08:36:04;;;;;;;4.13;1.85;;;;;;;19.69;55.58;101807.38;4991849;28;20137;-79
2022/09/21 08:38:33;;;;;;;7.68;1.90;;;;;;;19.43;56.17;101796.69;5026784;28;20077;-80
2022/09/21 08:41:01;;;;;;;8.35;2.53;;;;;;;19.57;55.94;101809.53;5011764;28;20056;-80
2022/09/21 08:43:30;;;;;;;5.93;2.88;;;;;;;19.75;55.24;101811.25;5029322;28;20049;-79
2022/09/21 08:45:58;;;;;;;6.32;2.13;;;;;;;19.64;55.24;101807.00;5011577;28;20050;-77
2022/09/21 08:48:30;;;;;;;6.78;2.58;;;;;;;19.67;54.37;101803.16;5011628;28;20045;-80
2022/09/21 08:51:07;;;;;;;8.88;1.73;;;;;;;19.63;54.30;101778.38;5012196;28;20467;-79
2022/09/21 08:53:37;;;;;;;8.60;2.88;;;;;;;20.02;53.43;101818.16;5011125;28;20045;-82
2022/09/21 08:56:04;;;;;;;5.65;1.67;;;;;;;20.06;52.51;101792.56;5008202;28;20061;-81
2022/09/21 08:58:31;;;;;;;8.23;2.17;;;;;;;20.18;52.68;101818.16;4991565;28;20052;-82
2022/09/21 09:01:20;;;;;;;4.65;2.05;;;;;;;20.40;51.26;101813.91;4994782;28;20048;-83
2022/09/21 09:04:19;;;;;;;11.98;2.90;;;;;;;20.16;52.01;101828.25;5020286;28;20150;-82
2022/09/21 09:07:33;;;;;;;5.60;2.10;;;;;;;19.93;51.72;101816.47;5004265;28;20038;-80
2022/09/21 09:10:28;;;;;;;6.95;2.08;;;;;;;20.32;50.77;101815.78;4993449;28;20495;-81
2022/09/21 09:13:07;;;;;;;5.50;2.38;;;;;;;19.90;51.35;101803.34;4991848;28;20041;-79
2022/09/21 09:15:45;;;;;;;4.65;2.20;;;;;;;19.90;51.71;101804.16;4991725;28;20046;-80
2022/09/21 09:18:32;;;;;;;6.95;2.08;;;;;;;20.16;51.93;101830.97;5007875;28;20061;-82
2022/09/21 09:21:12;;;;;;;6.22;2.38;;;;;;;19.98;51.26;101779.09;4991064;28;20206;-81
2022/09/21 09:23:52;;;;;;;5.53;2.10;;;;;;;20.31;51.33;101814.09;5007089;28;20458;-80
2022/09/21 09:26:26;;;;;;;7.90;2.50;;;;;;;20.44;50.61;101823.34;5008516;28;20187;-80
2022/09/21 09:28:59;;;;;;;8.30;2.60;;;;;;;20.40;50.69;101815.75;4990775;28;20050;-81
2022/09/21 09:31:32;;;;;;;7.00;2.40;;;;;;;19.95;50.97;101774.88;4990709;28;20061;-80
2022/09/21 09:34:52;;;;;;;6.20;2.28;;;;;;;20.11;50.83;101797.44;5006804;28;20136;-81
2022/09/21 09:37:24;;;;;;;7.13;1.70;;;;;;;20.05;51.41;101798.97;4938353;28;20150;-77
2022/09/21 09:39:56;;;;;;;9.90;2.10;;;;;;;20.16;51.60;101808.56;4963868;28;20046;-84
2022/09/21 09:42:22;;;;;;;5.22;1.65;;;;;;;19.71;51.16;101681.44;4964300;28;20589;-81
2022/09/21 09:45:07;;;;;;;6.13;2.05;;;;;;;20.46;50.84;101794.34;4990785;28;20461;-82
2022/09/21 09:47:52;;;;;;;4.25;1.90;;;;;;;20.59;50.59;101818.13;4990301;28;20045;-83
2022/09/21 09:50:34;;;;;;;4.63;1.60;;;;;;;20.68;48.66;101798.19;5027357;28;20136;-80
2022/09/21 09:53:12;;;;;;;;;;;;;;;20.91;47.77;101822.53;5026980;28;20519;-82
2022/09/21 09:55:46;;;;;;;3.35;1.63;;;;;;;21.08;47.46;101815.22;5009899;28;19921;-78
2022/09/21 09:58:17;;;;;;;3.00;1.38;;;;;;;21.26;47.60;101817.66;5027525;28;20469;-82
2022/09/21 10:00:46;;;;;;;5.55;2.00;;;;;;;21.42;47.15;101815.91;5027232;28;20053;-82
2022/09/21 10:03:22;;;;;;;11.18;2.35;;;;;;;21.46;46.58;101791.06;5006676;28;20068;-80
2022/09/21 10:05:49;;;;;;;2.10;1.27;;;;;;;21.50;46.81;101802.34;5025243;28;20049;-82
2022/09/21 10:08:35;;;;;;;3.53;1.27;;;;;;;21.51;45.04;101804.88;5010054;28;20501;-80
2022/09/21 10:11:02;;;;;;;6.40;1.63;;;;;;;21.59;43.89;101785.06;5027950;28;20140;-81
2022/09/21 10:13:32;;;;;;;4.15;1.40;;;;;;;21.17;44.82;101723.38;5009291;28;20104;-82
2022/09/21 10:16:03;;;;;;;9.52;1.58;;;;;;;21.52;44.96;101763.31;5009410;28;20057;-81
2022/09/21 10:18:36;;;;;;;6.78;1.50;;;;;;;21.90;44.64;101782.28;5027609;28;20151;-81
2022/09/21 10:21:14;;;;;;;4.78;1.20;;;;;;;22.01;44.82;101772.03;5009312;28;20072;-80
2022/09/21 10:24:00;;;;;;;7.20;2.10;;;;;;;22.36;43.99;101784.91;5009045;28;20060;-81
2022/09/21 10:26:46;;;;;;;4.97;1.90;;;;;;;22.69;42.39;101795.34;5009397;28;20053;-81
2022/09/21 10:29:16;;;;;;;5.53;1.90;;;;;;;22.63;43.02;101787.97;5009440;28;20049;-80
2022/09/21 10:32:02;;;;;;;4.78;1.80;;;;;;;22.53;41.95;101765.78;5003307;28;20132;-82
2022/09/21 10:34:31;;;;;;;3.67;1.92;;;;;;;22.36;42.56;101782.19;5016765;28;20038;-82
2022/09/21 10:37:01;;;;;;;5.85;2.00;;;;;;;22.37;41.94;101786.56;5004141;28;20107;-83
2022/09/21 10:39:30;;;;;;;11.35;1.75;;;;;;;21.97;41.52;101760.75;5008896;28;20053;-82
2022/09/21 10:42:01;;;;;;;10.15;1.65;;;;;;;22.00;41.86;101786.59;5001556;28;20407;-82
2022/09/21 10:44:49;;;;;;;3.75;1.42;;;;;;;22.04;41.29;101785.19;5008555;28;20386;-82
2022/09/21 10:47:48;;;;;;;10.45;1.00;;;;;;;21.85;40.97;101719.81;4999410;28;20050;-78
2022/09/21 10:50:35;;;;;;;7.93;1.27;;;;;;;21.67;41.99;101708.50;4976715;28;20489;-80
2022/09/21 10:53:07;;;;;;;4.53;1.50;;;;;;;21.94;41.85;101756.56;5007960;28;20493;-82
2022/09/21 10:55:40;;;;;;;4.35;1.38;;;;;;;21.86;42.04;101770.13;5007507;28;20511;-82
2022/09/21 10:58:23;;;;;;;4.43;1.25;;;;;;;21.60;42.09;101738.09;5026336;28;20045;-83
2022/09/21 11:00:52;;;;;;;4.53;1.35;;;;;;;21.88;42.01;101778.91;5005803;28;20054;-81
2022/09/21 11:03:34;;;;;;;3.10;1.35;;;;;;;21.85;41.65;101779.28;5007607;28;20053;-82
2022/09/21 11:06:17;;;;;;;5.00;1.42;;;;;;;22.01;41.06;101783.69;5009916;28;20444;-82
2022/09/21 11:08:55;;;;;;;2.63;1.10;;;;;;;22.43;40.26;101789.56;5012319;28;20322;-83
2022/09/21 11:11:51;;;;;;;6.65;1.60;;;;;;;22.79;40.43;101790.50;4991309;28;20046;-83
2022/09/21 11:14:36;;;;;;;3.78;1.40;;;;;;;23.04;39.31;101784.78;5013500;28;20045;-80
2022/09/21 11:17:14;;;;;;;3.60;1.50;;;;;;;23.10;40.26;101756.94;5014397;28;20357;-83
2022/09/21 11:19:54;;;;;;;4.45;1.48;;;;;;;23.24;38.86;101734.38;5023272;28;20046;-83
2022/09/21 11:22:31;;;;;;;3.28;1.52;;;;;;;23.75;39.35;101776.78;5029800;28;20051;-82
2022/09/21 11:25:01;;;;;;;2.15;1.38;;;;;;;22.83;38.00;101605.00;5026138;28;20083;-81
2022/09/21 11:27:34;;;;;;;5.13;1.48;;;;;;;23.88;37.48;101759.78;5008528;28;20501;-80
2022/09/21 11:30:11;;;;;;;8.73;1.83;;;;;;;24.08;37.25;101782.50;5008507;28;20129;-80
2022/09/21 11:32:50;;;;;;;2.42;1.10;;;;;;;24.15;36.56;101787.13;5008542;28;20120;-81
2022/09/21 11:35:32;;;;;;;4.45;1.33;;;;;;;24.33;36.19;101763.03;5009244;28;20084;-83
2022/09/21 11:38:13;;;;;;;5.43;1.77;;;;;;;24.14;35.91;101725.78;5008358;28;20127;-82
2022/09/21 11:41:00;;;;;;;4.80;1.17;;;;;;;24.82;35.70;101766.66;5008846;28;20053;-78
2022/09/21 11:44:01;;;;;;;3.72;1.50;;;;;;;25.17;34.79;101767.41;5007948;28;20139;-78
2022/09/21 11:46:45;;;;;;;2.17;1.00;;;;;;;24.95;34.30;101685.22;5008960;28;20065;-78
2022/09/21 11:49:32;;;;;;;6.18;1.23;;;;;;;25.48;32.48;101766.03;5026094;28;20611;-78
2022/09/21 11:51:58;;;;;;;2.20;1.15;;;;;;;25.24;33.11;101767.44;5008780;28;20723;-76
2022/09/21 11:54:45;;;;;;;2.22;0.90;;;;;;;25.14;31.29;101760.47;5007586;28;20398;-81
2022/09/21 11:57:24;;;;;;;1.88;1.10;;;;;;;24.51;32.35;101692.78;5024516;28;20064;-79